Wind From: 02-04-2020 10:00 Until: 22:00 warning for: Wind Level: Yellow info button
Snow/Ice From: 01-04-2020 13:00 Until: 03-04-2020 06:00 warning for: Snow/Ice Level: Yellow info button
Forest fire From: 31-03-2020 07:00 Until: 04-04-2020 13:00 warning for: Forest fire Level: Yellow info button


Værstasjon lokalisert i Sentrumsveien 49 , Siljan , Telemark , Norway : Station location Siljan , Telemark , Norway

Siden oppdateres fra en Oregon Scientific WMR 200 trådløs Værstasjon : Weatherstation Oregon Scientific WMR 200

Værprogramvare som kjøres lokalt er Weather Display 10.37s : Weatherprogram Weather Display 10.37s



Sentrumsveien Siljan  Sentrumsveien Siljan


F 32 Kikut  F 32 Kikut


Lyn radar more information blitzortung!


Varsel for Snø / Is more information rain snow radar


Besøk våre andre vær nettsider:

Template documentation
and downloads

And another site



Nære METAR Rapporter

Notice: A non well formed numeric value encountered in /customers/a/0/a/siljanweather.no/httpd.www/weather28/metar/wsMetarTxt.php on line 415 Warning: A non-numeric value encountered in /customers/a/0/a/siljanweather.no/httpd.www/weather28/metar/metarDisplay.php on line 166
   
ENTO - Sandefjord Torp
Oppdatert: 02-04-2020 13:20
For det meste skyet  
For det meste skyet  
   Vind: WSW 12.3 m/s<br />Gust to 12.3 m/s
Vind: WSW 12.3 m/s
Gust to 12.3 m/s
Temperatur: 8°C
Wind Chill: 3°C
Duggpunkt: 0°C
Luftfuktighet: 57%
Barometer: 981 hPa
Sky Radar: For det meste skyet
Sikt: mer enn 10 km
Sky detaljer: Vekslende skyet 3900 ft,
For det meste skyet 5300 ft
ENTO 021120Z 24024G37KT 220V280 9999 SCT039 BKN053 08/M00 Q0981 TEMPO SHRAGS
ENGM - Oslo Gardermoen
Oppdatert: 02-04-2020 13:20
Light Showers, Regn, For det meste skyet  
Light Showers, Regn, For det meste skyet  
   Vind: SW 6.7 m/s
Vind: SW 6.7 m/s
Temperatur: 4°C
Wind Chill: -1°C
Duggpunkt: -1°C
Luftfuktighet: 70%
Barometer: 977 hPa
Sky Radar: For det meste skyet
Sikt: mer enn 10 km
Sky detaljer: For det meste skyet 4600 ft
ENGM 021120Z 23013KT 9999 -SHRA BKN046 04/M01 Q0977 TEMPO 24025G35KT SHRAGS
ENZV - Stavanger Sola
Oppdatert: 02-04-2020 13:20
Nearby Showers, Vekslende skyet  
Nearby Showers, Vekslende skyet  
   Vind: Vest 14.9 m/s<br />Gust to 14.9 m/s
Vind: Vest 14.9 m/s
Gust to 14.9 m/s
Temperatur: 5°C
Wind Chill: -2°C
Duggpunkt: -4°C
Luftfuktighet: 53%
Barometer: 989 hPa
Sky Radar: Vekslende skyet
Sikt: mer enn 10 km
Sky detaljer: Noen Skyer 1400 ft,
Vekslende skyet 4000 ft
ENZV 021120Z 27029G41KT 9999 VCSH FEW014CB SCT040 05/M04 Q0989 TEMPO 28040G51KT 4000 SHRAGS BKN012CB
ENSL - Sleipner A Plattform
Oppdatert: 02-04-2020 13:20
Noen Skyer  
Noen Skyer  
   Vind: VNV 29.3 m/s
Vind: VNV 29.3 m/s
Temperatur: 5°C
Wind Chill: -3°C
Duggpunkt: -4°C
Luftfuktighet: 53%
Barometer: 993 hPa
Sky Radar: Noen Skyer
Sikt: 10 km
Sky detaljer: Noen Skyer 3500 ft
ENSL 021120Z AUTO 29057KT 9999NDV FEW035/// 05/M04 Q0993 W04/S6
VHHH - Hong Kong International Airport
Oppdatert: 02-04-2020 13:30
Vekslende skyet  
Vekslende skyet  
   Vind: Øst 7.2 m/s
Vind: Øst 7.2 m/s
Temperatur: 21°C
Duggpunkt: 19°C
Luftfuktighet: 88%
Barometer: 1016 hPa
Sky Radar: Vekslende skyet
Sikt: mer enn 10 km
Sky detaljer: Noen Skyer 1200 ft,
Vekslende skyet 4000 ft
VHHH 021130Z 08014KT 9999 FEW012 SCT040 21/19 Q1016 NOSIG
VTBS - Bangkok Suvarnabhumi
Oppdatert: 02-04-2020 13:30
Noen Skyer  
Noen Skyer  
   Vind: SSW 7.2 m/s
Vind: SSW 7.2 m/s
Temperatur: 31°C
Varme Index: 36°C
Duggpunkt: 23°C
Luftfuktighet: 62%
Barometer: 1008 hPa
Sky Radar: Noen Skyer
Sikt: mer enn 10 km
Sky detaljer: Noen Skyer 2000 ft
VTBS 021130Z 20014KT 9999 FEW020 31/23 Q1008 NOSIG
VTBU - U-Tapao International Airport
Oppdatert: 02-04-2020 13:30
Noen Skyer  
Noen Skyer  
   Vind: Sør 4.6 m/s
Vind: Sør 4.6 m/s
Temperatur: 30°C
Varme Index: 35°C
Duggpunkt: 24°C
Luftfuktighet: 70%
Barometer: 1009 hPa
Sky Radar: Noen Skyer
Sikt: mer enn 10 km
Sky detaljer: Noen Skyer 2000 ft
VTBU 021130Z 18009KT 9999 FEW020 30/24 Q1009 NOSIG
VTUD - Udon Thani International Airport
Oppdatert: 02-04-2020 13:00
Klart  
Klart  
   Vind: Øst 2.6 m/s
Vind: Øst 2.6 m/s
Temperatur: 34°C
Varme Index: 37°C
Duggpunkt: 21°C
Luftfuktighet: 47%
Barometer: 1007 hPa
Sikt: mer enn 10 km
Sky detaljer: Klart
VTUD 021100Z 08005KT CAVOK 34/21 Q1007 NOSIG
 

Script er utviklet av  Saratoga-weather.org Anpasset for malen gjennom  Weerstation Leuven

Du finner vår vær info også på:

European Weather Network

Weather Underground

HAMweather, WeatherForYou, PWS Weather

Utstyr vi bruker:

Vær-stasjon
Oregon Scientific WMR 200

Vær-programmet
Weather Display

Vær-server
Gigabyte Brix

Leverandør
Onecom

Oregon Scientific WMR 200

Weather Display

Gigabyte Brix

Onecom



Værstasjon lokalisert i Sentrumsveien 49 , Siljan , Telemark , Norway : Station location Siljan , Telemark , Norway

Siden oppdateres fra en Oregon Scientific WMR 200 trådløs Værstasjon : Weatherstation Oregon Scientific WMR 200

Værprogramvare som kjøres lokalt er Weather Display 10.37s : Weatherprogram Weather Display 10.37s